Time;durP1;ratioP1;P1;durP2;ratioP2;P2;SDS_P1;SDS_P2;PMS_P1;PMS_P2;Temp;Humidity;BMP_temperature;BMP_pressure;BME280_temperature;BME280_humidity;BME280_pressure;Samples;Min_cycle;Max_cycle;Signal;HPM_P1;HPM_P2
2023/10/03 04:21:20;;;;;;;11.50;6.73;;;;;;;;;;5024946;28;20483;-79
2023/10/03 04:23:49;;;;;;;17.17;7.77;;;;;;;;;;5025143;28;20447;-79
2023/10/03 04:26:18;;;;;;;11.00;5.57;;;;;;;;;;5024604;28;20479;-78
2023/10/03 04:28:47;;;;;;;12.63;6.60;;;;;;;;;;5024640;28;20618;-79
2023/10/03 04:31:16;;;;;;;11.73;6.97;;;;;;;;;;5008750;28;20460;-79
2023/10/03 04:33:45;;;;;;;11.93;6.90;;;;;;;;;;5023449;28;20704;-79
2023/10/03 04:36:15;;;;;;;9.87;5.70;;;;;;;;;;5022156;28;20455;-79
2023/10/03 04:38:45;;;;;;;12.67;7.30;;;;;;;;;;5023419;28;20459;-81
2023/10/03 04:41:13;;;;;;;13.00;7.70;;;;;;;;;;5024130;28;20462;-80
2023/10/03 04:43:41;;;;;;;12.43;6.97;;;;;;;;;;5023805;28;20474;-80
2023/10/03 04:46:11;;;;;;;14.43;7.03;;;;;;;;;;5024739;28;20487;-79
2023/10/03 04:48:39;;;;;;;13.00;6.80;;;;;;;;;;5024034;28;20533;-79
2023/10/03 07:07:29;;;;;;;11.80;6.63;;;;;;;;;;5441452;23;20761;-76
2023/10/03 07:38:54;;;;;;;18.10;9.97;;;;;;;;;;5117824;28;20474;-76
2023/10/03 07:54:44;;;;;;;17.00;8.77;;;;;;;;;;5859139;22;20951;-76
2023/10/03 07:57:37;;;;;;;18.17;9.07;;;;;;;;;;5097513;28;20460;-76
2023/10/03 08:03:42;;;;;;;;;;;;;;;;;;;;;
2023/10/03 15:03:33;;;;;;;5.27;0.93;;;;;;;;;;5069975;28;20950;-76
2023/10/03 19:58:56;;;;;;;9.17;2.20;;;;;;;;;;5424103;22;20470;-76
2023/10/03 20:01:34;;;;;;;6.20;2.10;;;;;;;;;;5042244;28;20525;-76
2023/10/03 20:28:18;;;;;;;7.33;1.90;;;;;;;;;;5041343;28;20460;-76
2023/10/03 20:31:06;;;;;;;13.43;2.13;;;;;;;;;;5040114;28;20465;-77
2023/10/03 20:33:48;;;;;;;5.10;1.80;;;;;;;;;;5038652;28;20469;-78
2023/10/03 20:36:31;;;;;;;6.00;1.50;;;;;;;;;;5041014;28;20473;-76
2023/10/03 22:32:53;;;;;;;7.00;2.20;;;;;;;;;;5391969;22;20476;-76
2023/10/03 23:01:23;;;;;;;7.30;2.33;;;;;;;;;;5632159;22;20962;-77
2023/10/03 23:03:54;;;;;;;5.40;2.40;;;;;;;;;;5584037;22;20618;-75
2023/10/03 23:06:28;;;;;;;6.23;1.73;;;;;;;;;;5061437;28;20453;-76
2023/10/03 23:08:59;;;;;;;6.23;2.00;;;;;;;;;;5060937;28;20448;-76
2023/10/03 23:11:33;;;;;;;6.37;1.87;;;;;;;;;;5061070;28;20928;-75
2023/10/03 23:22:08;;;;;;;8.83;1.90;;;;;;;;;;5044741;28;20545;-76
2023/10/03 23:24:37;;;;;;;9.03;2.03;;;;;;;;;;5040498;28;20537;-76
2023/10/03 23:27:19;;;;;;;7.10;2.07;;;;;;;;;;5040520;28;20489;-77
2023/10/03 23:30:12;;;;;;;6.53;1.70;;;;;;;;;;5038988;28;20960;-75
2023/10/03 23:32:49;;;;;;;9.07;1.60;;;;;;;;;;5030654;28;20454;-76
2023/10/03 23:35:43;;;;;;;8.90;1.97;;;;;;;;;;5042070;28;20482;-76
2023/10/03 23:38:24;;;;;;;8.70;2.10;;;;;;;;;;5040735;28;20466;-76
2023/10/03 23:46:09;;;;;;;13.10;2.50;;;;;;;;;;5717888;22;20515;-76
2023/10/03 23:48:48;;;;;;;8.07;2.00;;;;;;;;;;5070821;28;20891;-76
2023/10/03 23:54:16;;;;;;;10.73;2.00;;;;;;;;;;5082169;28;20983;-75
2023/10/03 23:56:56;;;;;;;8.73;1.57;;;;;;;;;;5079934;28;20464;-76
2023/10/03 23:59:40;;;;;;;5.77;1.90;;;;;;;;;;5082550;28;20497;-75
